Time;durP1;ratioP1;P1;durP2;ratioP2;P2;SDS_P1;SDS_P2;PMS_P1;PMS_P2;Temp;Humidity;BMP_temperature;BMP_pressure;BME280_temperature;BME280_humidity;BME280_pressure;Samples;Min_cycle;Max_cycle;Signal;HPM_P1;HPM_P2
2022/03/28 00:01:35;;;;;;;;;;;;;;;0.44;53.76;101217.13;2000889;87;20277;-82
2022/03/28 00:04:36;;;;;;;;;;;;;;;0.39;53.77;101221.73;2001384;88;20163;-81
2022/03/28 00:07:37;;;;;;;;;;;;;;;0.37;54.06;101210.53;1999172;88;20534;-81
2022/03/28 00:10:38;;;;;;;;;;;;;;;0.37;54.25;101205.31;2000373;88;20171;-82
2022/03/28 00:13:39;;;;;;;;;;;;;;;0.34;54.40;101201.55;2034465;82;20238;-82
2022/03/28 00:16:39;;;;;;;;;;;;;;;0.31;54.50;101204.31;2107628;82;20250;-82
2022/03/28 00:19:40;;;;;;;;;;;;;;;0.30;54.57;101205.22;2131190;82;20142;-82
2022/03/28 00:22:42;;;;;;;;;;;;;;;0.32;54.63;101204.69;2112286;82;20125;-81
2022/03/28 00:25:45;;;;;;;;;;;;;;;0.30;54.63;101200.45;2109010;82;20529;-81
2022/03/28 00:28:45;;;;;;;;;;;;;;;0.24;54.61;101200.76;2128059;82;20482;-81
2022/03/28 00:31:47;;;;;;;;;;;;;;;0.24;54.65;101195.07;2099295;83;20220;-81
2022/03/28 00:34:48;;;;;;;;;;;;;;;0.19;54.85;101185.30;2090727;83;20518;-82
2022/03/28 00:37:49;;;;;;;;;;;;;;;0.16;54.98;101182.38;2091841;83;20163;-81
2022/03/28 00:40:50;;;;;;;;;;;;;;;0.17;55.22;101178.88;2114675;82;20513;-80
2022/03/28 00:43:56;;;;;;;;;;;;;;;0.16;55.14;101180.23;2109820;82;20135;-80
2022/03/28 00:46:58;;;;;;;;;;;;;;;0.14;55.31;101182.07;2106473;82;20174;-80
2022/03/28 00:49:59;;;;;;;;;;;;;;;0.10;55.50;101173.55;2115943;82;20145;-80
2022/03/28 00:53:00;;;;;;;;;;;;;;;0.11;55.55;101169.17;2110339;83;20177;-80
2022/03/28 00:56:01;;;;;;;;;;;;;;;0.07;55.73;101166.34;2115891;83;20179;-80
2022/03/28 00:59:02;;;;;;;;;;;;;;;0.05;55.69;101167.70;2118580;83;20497;-80
2022/03/28 01:02:06;;;;;;;;;;;;;;;0.05;55.53;101156.42;2111435;83;20142;-80
2022/03/28 01:05:07;;;;;;;;;;;;;;;0.02;55.76;101159.19;2116718;83;20161;-80
2022/03/28 01:08:08;;;;;;;;;;;;;;;-0.03;55.89;101147.22;2116369;83;20162;-80
2022/03/28 01:11:10;;;;;;;;;;;;;;;-0.06;55.92;101142.14;2114606;83;20122;-80
2022/03/28 01:14:11;;;;;;;;;;;;;;;-0.06;55.91;101138.23;2094004;83;20135;-80
2022/03/28 01:20:35;;;;;;;;;;;;;;;-0.01;56.09;101139.30;2090813;84;20158;-80
2022/03/28 01:23:36;;;;;;;;;;;;;;;-0.02;56.02;101142.37;2091295;84;20577;-80
2022/03/28 01:26:37;;;;;;;;;;;;;;;-0.04;56.07;101136.38;2095722;84;20135;-80
2022/03/28 01:29:38;;;;;;;;;;;;;;;-0.06;56.15;101130.84;2088298;84;20124;-80
2022/03/28 01:32:39;;;;;;;;;;;;;;;-0.10;56.36;101127.54;2111934;83;20184;-80
2022/03/28 01:35:41;;;;;;;;;;;;;;;-0.13;56.41;101119.86;2107025;83;20140;-80
2022/03/28 01:38:42;;;;;;;;;;;;;;;-0.10;56.44;101123.62;2109039;83;20133;-80
2022/03/28 01:41:44;;;;;;;;;;;;;;;-0.03;56.50;101122.42;2111557;83;20187;-80
2022/03/28 01:44:50;;;;;;;;;;;;;;;0.02;56.47;101120.04;2110062;83;20477;-79
2022/03/28 01:47:51;;;;;;;;;;;;;;;-0.01;56.53;101112.73;2108441;83;20171;-80
2022/03/28 01:50:52;;;;;;;;;;;;;;;-0.02;56.57;101105.84;2114704;83;20151;-80
2022/03/28 01:53:53;;;;;;;;;;;;;;;-0.06;56.55;101101.70;2110862;83;20123;-80
2022/03/28 01:56:53;;;;;;;;;;;;;;;-0.06;56.71;101100.40;2111938;83;20584;-80
2022/03/28 01:59:54;;;;;;;;;;;;;;;-0.09;56.83;101084.86;2113397;83;20150;-80
2022/03/28 02:02:56;;;;;;;;;;;;;;;-0.04;56.84;101089.41;2109648;83;20123;-80
2022/03/28 02:05:57;;;;;;;;;;;;;;;-0.10;56.78;101094.09;2110167;83;20906;-80
2022/03/28 02:08:58;;;;;;;;;;;;;;;-0.15;56.90;101096.91;2110383;83;20115;-80
2022/03/28 02:11:59;;;;;;;;;;;;;;;-0.17;56.93;101090.95;2109674;83;20190;-79
2022/03/28 02:14:59;;;;;;;;;;;;;;;-0.19;57.02;101086.25;2113392;83;20206;-80
2022/03/28 02:18:00;;;;;;;;;;;;;;;-0.25;57.00;101077.42;2109085;83;20167;-80
2022/03/28 02:21:01;;;;;;;;;;;;;;;-0.30;57.03;101081.55;2110317;83;20132;-79
2022/03/28 02:24:02;;;;;;;;;;;;;;;-0.34;57.12;101071.33;2114718;83;20248;-80
2022/03/28 02:27:03;;;;;;;;;;;;;;;-0.37;57.28;101063.65;2112223;83;20136;-80
2022/03/28 02:30:06;;;;;;;;;;;;;;;-0.34;57.38;101058.28;2107194;83;20196;-80
2022/03/28 02:33:07;;;;;;;;;;;;;;;-0.35;57.28;101063.13;2109343;83;20472;-80
2022/03/28 02:36:08;;;;;;;;;;;;;;;-0.37;57.31;101055.36;2109631;83;20165;-80
2022/03/28 02:39:10;;;;;;;;;;;;;;;-0.37;57.26;101050.61;2108467;83;20155;-80
2022/03/28 02:42:11;;;;;;;;;;;;;;;-0.38;57.41;101052.84;2109848;83;20131;-80
2022/03/28 02:45:12;;;;;;;;;;;;;;;-0.37;57.42;101044.09;2108717;83;20206;-80
2022/03/28 02:48:13;;;;;;;;;;;;;;;-0.47;57.43;101044.55;2109526;83;20215;-80
2022/03/28 02:51:14;;;;;;;;;;;;;;;-0.61;57.28;101045.66;2107174;83;20153;-79
2022/03/28 02:54:15;;;;;;;;;;;;;;;-0.64;57.48;101040.59;2113202;83;20131;-80
2022/03/28 02:57:16;;;;;;;;;;;;;;;-0.61;57.54;101040.45;2110120;83;20156;-80
2022/03/28 03:00:17;;;;;;;;;;;;;;;-0.60;57.55;101038.67;2114015;83;20128;-80
2022/03/28 03:03:18;;;;;;;;;;;;;;;-0.63;57.62;101034.91;2109196;83;20181;-80
2022/03/28 03:06:19;;;;;;;;;;;;;;;-0.64;57.78;101039.29;2110120;83;20109;-80
2022/03/28 03:09:20;;;;;;;;;;;;;;;-0.64;58.31;101033.23;2111229;83;20159;-79
2022/03/28 03:12:21;;;;;;;;;;;;;;;-0.70;58.41;101031.30;2111551;83;20452;-80
2022/03/28 03:15:22;;;;;;;;;;;;;;;-0.73;58.24;101033.22;2104924;83;20161;-80
2022/03/28 03:18:23;;;;;;;;;;;;;;;-0.79;58.21;101029.14;2110387;83;20183;-80
2022/03/28 03:21:24;;;;;;;;;;;;;;;-0.78;58.33;101028.20;2107057;83;20141;-80
2022/03/28 03:24:25;;;;;;;;;;;;;;;-0.73;58.29;101034.52;2112745;83;20204;-80
2022/03/28 03:27:25;;;;;;;;;;;;;;;-0.76;58.21;101035.94;2107853;83;20175;-80
2022/03/28 03:30:26;;;;;;;;;;;;;;;-0.77;58.27;101037.70;2109253;83;20136;-79
2022/03/28 03:33:27;;;;;;;;;;;;;;;-0.79;58.44;101038.26;2111767;83;21229;-80
2022/03/28 03:36:28;;;;;;;;;;;;;;;-0.81;58.48;101039.24;2112146;83;20235;-80
2022/03/28 03:39:29;;;;;;;;;;;;;;;-0.81;58.54;101039.24;2111431;83;20135;-80
2022/03/28 03:42:31;;;;;;;;;;;;;;;-0.81;58.78;101032.73;2106395;83;20119;-80
2022/03/28 03:45:32;;;;;;;;;;;;;;;-0.79;58.97;101034.78;2114769;83;20152;-79
2022/03/28 03:48:34;;;;;;;;;;;;;;;-0.79;59.16;101036.08;2109277;83;20175;-80
2022/03/28 03:51:36;;;;;;;;;;;;;;;-0.79;59.14;101033.48;2110632;83;20132;-80
2022/03/28 03:54:37;;;;;;;;;;;;;;;-0.84;59.09;101033.72;2107526;83;20124;-80
2022/03/28 03:57:38;;;;;;;;;;;;;;;-0.87;59.24;101032.98;2108004;83;20508;-80
2022/03/28 04:00:40;;;;;;;;;;;;;;;-0.88;59.29;101029.54;2107174;83;20490;-80
2022/03/28 04:03:40;;;;;;;;;;;;;;;-0.87;59.40;101032.98;2110370;83;20436;-80
2022/03/28 04:06:42;;;;;;;;;;;;;;;-0.95;59.53;101026.39;2116906;83;20151;-79
2022/03/28 04:09:43;;;;;;;;;;;;;;;-1.06;59.82;101020.83;2105548;83;20166;-80
2022/03/28 04:12:43;;;;;;;;;;;;;;;-1.12;60.16;101014.60;2103344;83;20160;-80
2022/03/28 04:15:44;;;;;;;;;;;;;;;-1.17;60.13;101016.56;2109066;83;20135;-79
2022/03/28 04:18:45;;;;;;;;;;;;;;;-1.20;60.17;101020.15;2105134;83;20151;-80
2022/03/28 04:21:48;;;;;;;;;;;;;;;-1.25;60.16;101022.11;2085955;83;21985;-80
2022/03/28 04:24:49;;;;;;;;;;;;;;;-1.27;60.31;101016.58;2112205;83;20119;-80
2022/03/28 04:27:50;;;;;;;;;;;;;;;-1.27;60.37;101019.19;2111415;83;20477;-79
2022/03/28 04:30:51;;;;;;;;;;;;;;;-1.25;60.34;101019.51;2110223;83;20156;-79
2022/03/28 04:33:52;;;;;;;;;;;;;;;-1.23;60.33;101012.48;2111030;83;20163;-79
2022/03/28 04:36:53;;;;;;;;;;;;;;;-1.21;60.38;101014.56;2109386;83;20431;-80
2022/03/28 04:39:54;;;;;;;;;;;;;;;-1.19;60.57;101015.31;2106678;83;20120;-80
2022/03/28 04:42:55;;;;;;;;;;;;;;;-1.15;60.69;101008.23;2104090;83;20167;-79
2022/03/28 04:45:56;;;;;;;;;;;;;;;-1.04;60.90;101005.98;2109192;83;21038;-79
2022/03/28 04:48:57;;;;;;;;;;;;;;;-1.02;61.08;101005.89;2111498;83;20224;-79
2022/03/28 04:51:58;;;;;;;;;;;;;;;-1.00;61.23;101010.12;2102879;83;20144;-82
2022/03/28 04:55:00;;;;;;;;;;;;;;;-0.94;61.23;101009.83;2088324;84;20165;-83
2022/03/28 04:58:01;;;;;;;;;;;;;;;-0.84;61.22;101007.66;2111101;82;20128;-81
2022/03/28 05:01:02;;;;;;;;;;;;;;;-0.78;61.18;101001.31;2090363;84;20680;-82
2022/03/28 05:04:03;;;;;;;;;;;;;;;-0.66;61.15;101003.32;2108545;83;20202;-82
2022/03/28 05:07:06;;;;;;;;;;;;;;;-0.58;61.15;100995.98;2105740;83;20115;-82
2022/03/28 05:10:09;;;;;;;;;;;;;;;-0.50;61.29;100995.62;2109112;83;20134;-82
2022/03/28 05:13:10;;;;;;;;;;;;;;;-0.41;61.44;100996.46;2102909;83;20429;-81
2022/03/28 05:16:11;;;;;;;;;;;;;;;-0.23;61.55;100996.01;2104707;83;20628;-82
2022/03/28 05:19:12;;;;;;;;;;;;;;;-0.05;61.54;100991.19;2103566;83;20119;-82
2022/03/28 05:22:13;;;;;;;;;;;;;;;0.11;61.58;100987.31;2091474;84;20175;-82
2022/03/28 05:25:14;;;;;;;;;;;;;;;0.38;61.69;100982.91;2131487;82;20175;-83
2022/03/28 05:28:15;;;;;;;;;;;;;;;0.93;61.71;100985.63;2135997;82;20474;-83
2022/03/28 05:31:16;;;;;;;;;;;;;;;1.60;61.49;100975.79;2130800;82;20131;-83
2022/03/28 05:34:17;;;;;;;;;;;;;;;2.30;61.04;100976.03;2128921;82;20465;-83
2022/03/28 05:37:18;;;;;;;;;;;;;;;2.95;60.62;100980.28;2127190;82;20183;-82
2022/03/28 05:40:19;;;;;;;;;;;;;;;3.64;60.29;100969.77;2124146;82;20169;-81
2022/03/28 05:43:20;;;;;;;;;;;;;;;4.32;59.65;100969.99;2087102;84;20136;-81
2022/03/28 05:46:21;;;;;;;;;;;;;;;4.97;59.12;100967.14;2090233;84;20457;-83
2022/03/28 05:49:25;;;;;;;;;;;;;;;5.54;58.18;100957.73;2089311;83;20142;-83
2022/03/28 05:52:26;;;;;;;;;;;;;;;6.00;57.53;100960.44;2096071;83;20165;-83
2022/03/28 05:55:27;;;;;;;;;;;;;;;6.48;57.01;100958.09;2101864;84;20117;-82
2022/03/28 05:58:29;;;;;;;;;;;;;;;6.96;56.62;100957.81;2101162;83;20171;-83
2022/03/28 06:01:30;;;;;;;;;;;;;;;7.42;56.06;100950.12;2102536;84;20163;-83
2022/03/28 06:04:32;;;;;;;;;;;;;;;8.01;55.80;100946.93;2101183;83;20162;-85
2022/03/28 06:07:33;;;;;;;;;;;;;;;8.64;55.20;100938.06;2101936;83;20171;-87
2022/03/28 06:10:34;;;;;;;;;;;;;;;9.32;54.56;100941.70;2097916;84;20467;-90
2022/03/28 06:13:36;;;;;;;;;;;;;;;10.01;53.95;100939.83;2101261;83;20151;-85
2022/03/28 06:16:37;;;;;;;;;;;;;;;10.60;53.10;100936.52;2101322;84;20529;-86
2022/03/28 06:19:38;;;;;;;;;;;;;;;11.01;52.27;100931.20;2104686;83;20157;-85
2022/03/28 06:22:39;;;;;;;;;;;;;;;11.39;51.56;100930.06;2103525;84;20188;-88
2022/03/28 06:25:40;;;;;;;;;;;;;;;11.66;50.90;100923.83;2102531;84;20518;-86
2022/03/28 06:28:42;;;;;;;;;;;;;;;11.88;50.02;100920.34;2098900;84;20158;-86
2022/03/28 06:31:43;;;;;;;;;;;;;;;12.04;49.59;100916.97;2097242;84;20153;-85
2022/03/28 06:34:44;;;;;;;;;;;;;;;12.48;49.28;100915.05;2105632;83;20444;-85
2022/03/28 06:37:45;;;;;;;;;;;;;;;12.76;48.33;100909.00;2100563;83;20133;-85
2022/03/28 06:40:46;;;;;;;;;;;;;;;12.99;47.84;100902.56;2102312;83;20139;-85
2022/03/28 06:43:48;;;;;;;;;;;;;;;13.17;47.58;100901.08;2104555;83;20171;-86
2022/03/28 06:46:50;;;;;;;;;;;;;;;13.42;46.79;100897.14;2097974;83;20498;-87
2022/03/28 06:49:52;;;;;;;;;;;;;;;13.53;46.63;100894.65;2098259;84;20438;-85
2022/03/28 06:52:54;;;;;;;;;;;;;;;13.80;46.09;100896.97;2091845;84;20459;-85
2022/03/28 06:55:55;;;;;;;;;;;;;;;14.18;45.55;100891.88;2090246;84;20165;-86
2022/03/28 06:58:56;;;;;;;;;;;;;;;14.32;45.00;100888.48;2089678;84;20118;-86
2022/03/28 07:01:57;;;;;;;;;;;;;;;14.77;44.45;100886.98;2087004;84;20153;-85
2022/03/28 07:04:58;;;;;;;;;;;;;;;14.92;43.00;100886.22;2091869;84;20135;-87
2022/03/28 07:08:00;;;;;;;;;;;;;;;14.85;43.63;100886.62;2086006;84;20441;-86
2022/03/28 07:11:02;;;;;;;;;;;;;;;14.96;43.26;100884.37;2088335;84;20153;-86
2022/03/28 07:14:03;;;;;;;;;;;;;;;15.07;43.03;100877.79;2089411;84;20183;-87
2022/03/28 07:17:04;;;;;;;;;;;;;;;15.29;42.79;100873.46;2084818;84;20139;-86
2022/03/28 07:20:07;;;;;;;;;;;;;;;15.43;42.69;100873.19;2088455;84;20159;-87
2022/03/28 07:23:09;;;;;;;;;;;;;;;15.58;41.85;100867.86;2086957;84;20153;-88
2022/03/28 07:26:13;;;;;;;;;;;;;;;15.60;41.55;100870.69;2086690;84;20172;-85
2022/03/28 07:29:17;;;;;;;;;;;;;;;15.75;41.21;100865.39;2087104;84;20135;-83
2022/03/28 07:32:18;;;;;;;;;;;;;;;15.86;41.09;100865.45;2089719;84;20472;-83
2022/03/28 07:35:21;;;;;;;;;;;;;;;16.01;41.20;100860.92;2087574;84;20487;-83
2022/03/28 07:38:22;;;;;;;;;;;;;;;16.31;40.78;100860.41;2087809;84;20513;-84
2022/03/28 07:41:23;;;;;;;;;;;;;;;16.60;40.30;100849.33;2088663;84;20147;-84
2022/03/28 07:44:24;;;;;;;;;;;;;;;16.75;40.01;100850.13;2087651;84;20167;-85
2022/03/28 07:47:26;;;;;;;;;;;;;;;16.95;39.90;100845.02;2088570;84;20645;-84
2022/03/28 07:50:27;;;;;;;;;;;;;;;17.20;39.50;100839.24;2085761;84;20124;-86
2022/03/28 07:53:29;;;;;;;;;;;;;;;17.25;39.04;100836.30;2097216;84;20179;-84
2022/03/28 07:56:31;;;;;;;;;;;;;;;17.39;39.14;100831.88;2096969;84;20151;-83
2022/03/28 07:59:32;;;;;;;;;;;;;;;17.48;38.13;100828.05;2104350;84;20135;-83
2022/03/28 08:02:33;;;;;;;;;;;;;;;17.34;38.44;100831.62;2100780;83;20195;-85
2022/03/28 08:05:35;;;;;;;;;;;;;;;17.42;38.65;100824.78;2102681;83;20155;-83
2022/03/28 08:08:37;;;;;;;;;;;;;;;17.53;38.24;100817.23;2099403;83;20154;-84
2022/03/28 08:11:38;;;;;;;;;;;;;;;17.50;38.35;100810.92;2101534;84;20233;-86
2022/03/28 08:14:39;;;;;;;;;;;;;;;17.48;38.03;100805.25;2098138;84;20209;-84
2022/03/28 08:17:41;;;;;;;;;;;;;;;17.57;37.92;100797.02;2099248;84;20147;-83
2022/03/28 08:20:43;;;;;;;;;;;;;;;17.61;38.18;100802.33;2101709;83;20427;-84
2022/03/28 08:23:44;;;;;;;;;;;;;;;17.73;37.98;100794.04;2101730;83;20135;-85
2022/03/28 08:26:46;;;;;;;;;;;;;;;17.95;37.77;100789.97;2101659;83;20150;-84
2022/03/28 08:29:47;;;;;;;;;;;;;;;17.94;37.96;100788.33;2098694;83;20129;-86
2022/03/28 08:32:48;;;;;;;;;;;;;;;18.30;37.89;100790.23;2106467;83;20258;-86
2022/03/28 08:35:49;;;;;;;;;;;;;;;18.46;37.67;100779.63;2102882;84;20129;-84
2022/03/28 08:38:51;;;;;;;;;;;;;;;18.66;37.46;100781.54;2102553;84;20160;-84
2022/03/28 08:41:53;;;;;;;;;;;;;;;18.50;36.75;100767.95;2103968;84;20267;-85
2022/03/28 08:44:54;;;;;;;;;;;;;;;18.46;37.27;100764.02;2106714;83;20502;-84
2022/03/28 08:47:55;;;;;;;;;;;;;;;18.51;37.26;100770.97;2098841;84;20105;-85
2022/03/28 08:50:57;;;;;;;;;;;;;;;18.66;37.01;100766.23;2099591;84;20149;-83
2022/03/28 08:53:58;;;;;;;;;;;;;;;18.75;37.34;100757.48;2093325;84;20207;-84
2022/03/28 08:56:59;;;;;;;;;;;;;;;18.78;36.71;100751.70;2094841;84;20522;-85
2022/03/28 09:00:00;;;;;;;;;;;;;;;18.58;36.83;100748.95;2093815;84;20166;-84
2022/03/28 09:03:01;;;;;;;;;;;;;;;18.44;36.83;100741.38;2095462;84;20156;-84
2022/03/28 09:06:09;;;;;;;;;;;;;;;18.52;37.37;100736.34;2087157;84;20137;-84
2022/03/28 09:09:27;;;;;;;;;;;;;;;18.68;37.03;100732.45;2080620;84;20471;-82
2022/03/28 09:12:28;;;;;;;;;;;;;;;18.58;36.82;100726.96;2090028;84;20169;-82
2022/03/28 09:15:47;;;;;;;;;;;;;;;18.52;36.93;100724.25;2088052;84;20159;-82
2022/03/28 09:18:48;;;;;;;;;;;;;;;18.63;36.58;100711.55;2073040;84;20163;-81
2022/03/28 09:21:50;;;;;;;;;;;;;;;18.73;36.36;100721.91;2086166;84;20185;-82
2022/03/28 09:24:55;;;;;;;;;;;;;;;18.70;36.13;100716.95;2090632;84;20554;-82
2022/03/28 09:27:57;;;;;;;;;;;;;;;18.64;36.49;100723.97;2112265;83;20122;-81
2022/03/28 09:31:00;;;;;;;;;;;;;;;18.75;36.63;100713.98;2111632;83;20165;-82
2022/03/28 09:34:13;;;;;;;;;;;;;;;18.95;36.34;100698.34;2084097;83;20162;-81
2022/03/28 09:37:15;;;;;;;;;;;;;;;19.04;36.35;100697.95;2112056;83;20126;-82
2022/03/28 09:40:24;;;;;;;;;;;;;;;19.04;35.74;100691.74;2111567;83;20157;-81
2022/03/28 09:43:30;;;;;;;;;;;;;;;19.07;35.59;100685.13;2111829;83;20134;-82
2022/03/28 09:46:33;;;;;;;;;;;;;;;19.16;35.88;100681.17;2085998;84;20164;-81
2022/03/28 09:49:35;;;;;;;;;;;;;;;19.27;36.07;100681.88;2100972;83;20615;-81
2022/03/28 09:52:38;;;;;;;;;;;;;;;19.35;35.62;100678.14;2110119;82;20163;-81
2022/03/28 09:55:50;;;;;;;;;;;;;;;19.37;35.43;100672.01;2103342;82;20496;-81
2022/03/28 09:58:59;;;;;;;;;;;;;;;19.40;35.85;100667.55;2106257;82;20163;-82
2022/03/28 10:02:03;;;;;;;;;;;;;;;19.48;35.49;100663.28;2118765;82;20178;-82
2022/03/28 10:05:05;;;;;;;;;;;;;;;19.65;35.29;100655.56;2121355;82;20522;-82
2022/03/28 10:08:06;;;;;;;;;;;;;;;19.81;34.19;100650.25;2122338;82;20134;-81
2022/03/28 10:11:08;;;;;;;;;;;;;;;19.60;34.25;100645.45;2113661;82;20137;-81
2022/03/28 10:14:09;;;;;;;;;;;;;;;19.47;34.35;100642.80;2124386;82;20145;-82
2022/03/28 10:17:10;;;;;;;;;;;;;;;19.46;33.75;100631.22;2116848;82;20177;-81
2022/03/28 10:20:11;;;;;;;;;;;;;;;19.29;33.99;100625.15;2119161;82;20148;-82
2022/03/28 10:23:18;;;;;;;;;;;;;;;19.30;34.63;100625.48;2124048;82;20137;-80
2022/03/28 10:26:22;;;;;;;;;;;;;;;19.45;34.16;100619.30;2112613;82;20163;-81
2022/03/28 10:29:27;;;;;;;;;;;;;;;19.53;33.99;100619.07;2113811;82;20180;-82
2022/03/28 10:32:28;;;;;;;;;;;;;;;19.59;33.51;100617.39;2120823;82;20279;-80
2022/03/28 10:35:29;;;;;;;;;;;;;;;19.36;33.52;100612.52;2124270;82;20157;-82
2022/03/28 10:38:30;;;;;;;;;;;;;;;19.32;33.85;100611.30;2119144;82;20472;-81
2022/03/28 10:41:33;;;;;;;;;;;;;;;19.46;34.20;100606.18;2120993;82;20167;-79
2022/03/28 10:44:45;;;;;;;;;;;;;;;19.72;34.09;100595.02;2101841;82;20129;-81
2022/03/28 10:47:52;;;;;;;;;;;;;;;19.84;34.24;100590.58;2110295;82;20150;-81
2022/03/28 10:50:54;;;;;;;;;;;;;;;19.96;33.15;100579.94;2117225;82;20180;-80
2022/03/28 10:54:07;;;;;;;;;;;;;;;19.83;32.80;100583.03;2105868;82;20115;-81
2022/03/28 10:57:11;;;;;;;;;;;;;;;19.82;32.45;100571.12;2108769;83;20134;-82
2022/03/28 11:00:13;;;;;;;;;;;;;;;19.74;32.85;100572.72;2066482;84;20449;-82
2022/03/28 11:03:35;;;;;;;;;;;;;;;19.76;32.90;100569.30;2082943;85;20160;-82
2022/03/28 11:06:52;;;;;;;;;;;;;;;19.82;32.35;100566.58;2116211;83;20154;-81
2022/03/28 11:10:03;;;;;;;;;;;;;;;19.80;31.60;100551.16;2105737;83;20130;-82
2022/03/28 11:13:15;;;;;;;;;;;;;;;19.75;31.39;100546.12;2095916;84;20548;-82
2022/03/28 11:16:20;;;;;;;;;;;;;;;19.81;31.86;100543.90;2068637;84;20169;-81
2022/03/28 11:19:32;;;;;;;;;;;;;;;19.95;31.26;100525.26;2096572;84;20170;-81
2022/03/28 11:22:51;;;;;;;;;;;;;;;20.06;31.07;100522.39;2095528;83;20147;-81
2022/03/28 11:25:53;;;;;;;;;;;;;;;20.10;31.31;100519.05;2067141;83;20194;-81
2022/03/28 11:28:55;;;;;;;;;;;;;;;20.14;31.32;100512.16;2098448;84;20194;-81
2022/03/28 11:32:00;;;;;;;;;;;;;;;20.12;31.19;100513.42;2070744;84;20566;-81
2022/03/28 11:35:03;;;;;;;;;;;;;;;20.10;31.63;100504.23;2089873;84;20169;-80
2022/03/28 11:38:06;;;;;;;;;;;;;;;20.17;31.39;100493.91;2093408;84;20141;-81
2022/03/28 11:41:12;;;;;;;;;;;;;;;20.30;31.23;100489.23;2097050;84;20147;-81
2022/03/28 11:44:13;;;;;;;;;;;;;;;20.24;30.45;100484.70;2094227;84;20168;-81
2022/03/28 11:47:17;;;;;;;;;;;;;;;20.11;31.09;100474.89;2087533;84;20142;-81
2022/03/28 11:50:18;;;;;;;;;;;;;;;20.19;30.96;100472.95;2090220;84;20170;-81
2022/03/28 11:53:20;;;;;;;;;;;;;;;20.23;31.07;100470.13;2101029;83;20177;-82
2022/03/28 11:56:30;;;;;;;;;;;;;;;20.19;31.19;100468.91;2109880;83;20172;-81
2022/03/28 11:59:32;;;;;;;;;;;;;;;20.04;31.19;100455.26;2103959;83;20485;-81
2022/03/28 12:02:35;;;;;;;;;;;;;;;20.08;31.41;100461.05;2101011;83;20144;-81
2022/03/28 12:05:42;;;;;;;;;;;;;;;20.21;31.53;100451.48;2113261;83;20702;-82
2022/03/28 12:08:43;;;;;;;;;;;;;;;20.26;31.29;100438.70;2110421;83;20201;-81
2022/03/28 12:11:49;;;;;;;;;;;;;;;20.31;31.00;100430.25;2113759;83;20159;-81
2022/03/28 12:14:50;;;;;;;;;;;;;;;20.33;31.38;100424.64;2110818;83;20162;-81
2022/03/28 12:17:53;;;;;;;;;;;;;;;20.35;31.13;100411.75;2116436;83;20182;-80
2022/03/28 12:20:59;;;;;;;;;;;;;;;20.35;31.01;100405.02;2110381;83;20148;-81
2022/03/28 12:24:06;;;;;;;;;;;;;;;20.30;30.92;100393.58;2106893;83;20146;-81
2022/03/28 12:27:07;;;;;;;;;;;;;;;20.29;31.30;100397.83;2108067;83;20165;-82
2022/03/28 12:30:10;;;;;;;;;;;;;;;20.38;30.88;100391.09;2110416;83;20194;-82
2022/03/28 12:33:35;;;;;;;;;;;;;;;20.33;30.88;100378.84;2110089;83;20193;-82
2022/03/28 12:36:38;;;;;;;;;;;;;;;20.25;31.09;100374.56;2108898;83;20138;-82
2022/03/28 12:39:43;;;;;;;;;;;;;;;20.18;31.05;100356.28;2109375;83;20443;-81
2022/03/28 12:42:44;;;;;;;;;;;;;;;20.24;31.12;100358.61;2111213;83;20165;-82
2022/03/28 12:45:50;;;;;;;;;;;;;;;20.27;31.40;100360.85;2113650;83;20156;-82
2022/03/28 12:48:53;;;;;;;;;;;;;;;20.38;31.33;100347.97;2109751;83;20170;-82
2022/03/28 12:51:54;;;;;;;;;;;;;;;20.38;31.04;100341.23;2110040;83;20199;-82
2022/03/28 12:54:56;;;;;;;;;;;;;;;20.40;31.18;100333.76;2114749;83;20165;-81
2022/03/28 12:57:59;;;;;;;;;;;;;;;20.37;31.36;100332.86;2117188;83;20144;-82
2022/03/28 13:01:05;;;;;;;;;;;;;;;20.36;31.16;100315.06;2116112;83;20587;-81
2022/03/28 13:04:24;;;;;;;;;;;;;;;20.28;31.02;100318.06;2120873;83;20144;-82
2022/03/28 13:07:27;;;;;;;;;;;;;;;20.23;31.07;100311.98;2110976;83;20135;-83
2022/03/28 13:10:35;;;;;;;;;;;;;;;20.30;31.00;100297.93;2115914;83;20145;-81
2022/03/28 13:13:36;;;;;;;;;;;;;;;20.32;31.17;100292.30;2116918;83;20502;-81
2022/03/28 13:16:37;;;;;;;;;;;;;;;20.31;31.20;100289.31;2115483;83;20145;-82
2022/03/28 13:19:40;;;;;;;;;;;;;;;20.27;31.29;100290.30;2116784;83;20151;-82
2022/03/28 13:22:42;;;;;;;;;;;;;;;20.25;31.18;100282.14;2086518;83;20138;-82
2022/03/28 13:25:43;;;;;;;;;;;;;;;20.17;31.29;100279.75;2104685;83;20132;-82
2022/03/28 13:28:44;;;;;;;;;;;;;;;20.10;31.31;100263.66;2099463;83;20674;-83
2022/03/28 13:31:45;;;;;;;;;;;;;;;20.02;31.00;100260.77;2103122;83;20462;-82
2022/03/28 13:34:46;;;;;;;;;;;;;;;19.95;31.25;100255.15;2104200;83;20437;-82
2022/03/28 13:37:59;;;;;;;;;;;;;;;19.99;31.15;100249.09;2101565;83;20148;-82
2022/03/28 13:41:00;;;;;;;;;;;;;;;19.96;30.95;100244.13;2104962;83;20156;-82
2022/03/28 13:44:07;;;;;;;;;;;;;;;19.97;31.11;100236.38;2106650;83;20161;-82
2022/03/28 13:47:05;;;;;;;;;;;;;;;20.05;30.88;100238.77;2099456;83;20147;-83
2022/03/28 13:50:07;;;;;;;;;;;;;;;20.00;30.92;100236.45;2103307;83;20131;-82
2022/03/28 13:53:10;;;;;;;;;;;;;;;19.94;30.73;100220.67;2107186;82;20483;-81
2022/03/28 13:56:11;;;;;;;;;;;;;;;19.83;30.80;100220.89;2135964;81;20162;-82
2022/03/28 13:59:12;;;;;;;;;;;;;;;19.79;30.96;100214.83;2136229;81;20153;-82
2022/03/28 14:02:13;;;;;;;;;;;;;;;19.89;30.94;100216.48;2134050;81;20191;-82
2022/03/28 14:05:14;;;;;;;;;;;;;;;19.92;30.74;100206.60;2139049;81;20133;-82
2022/03/28 14:08:15;;;;;;;;;;;;;;;19.98;30.68;100193.57;2138295;81;20150;-82
2022/03/28 14:11:16;;;;;;;;;;;;;;;19.92;29.69;100191.80;2141184;81;20151;-83
2022/03/28 14:14:18;;;;;;;;;;;;;;;19.89;30.17;100192.25;2137784;81;20144;-83
2022/03/28 14:17:19;;;;;;;;;;;;;;;19.76;29.94;100187.83;2136596;81;20130;-82
2022/03/28 14:20:20;;;;;;;;;;;;;;;19.64;30.13;100182.35;2136374;81;20137;-81
2022/03/28 14:23:21;;;;;;;;;;;;;;;19.59;30.59;100182.20;2120747;83;20188;-82
2022/03/28 14:26:22;;;;;;;;;;;;;;;19.56;30.58;100174.58;2147378;81;20424;-82
2022/03/28 14:29:24;;;;;;;;;;;;;;;19.62;30.77;100162.09;2111485;83;20155;-82
2022/03/28 14:32:25;;;;;;;;;;;;;;;19.65;30.71;100167.90;2107856;83;20141;-82
2022/03/28 14:35:27;;;;;;;;;;;;;;;19.65;30.88;100163.86;2107996;83;20136;-81
2022/03/28 14:38:28;;;;;;;;;;;;;;;19.60;31.11;100163.67;2111183;83;20131;-83
2022/03/28 14:41:30;;;;;;;;;;;;;;;19.54;31.12;100152.47;2112392;83;20120;-81
2022/03/28 14:44:31;;;;;;;;;;;;;;;19.48;31.06;100148.81;2107484;83;20204;-82
2022/03/28 14:47:35;;;;;;;;;;;;;;;19.40;31.37;100148.25;2111687;83;20145;-81
2022/03/28 14:50:36;;;;;;;;;;;;;;;19.32;31.62;100134.59;2116248;83;20160;-82
2022/03/28 14:53:37;;;;;;;;;;;;;;;19.26;31.86;100139.00;2115648;83;20147;-82
2022/03/28 14:56:38;;;;;;;;;;;;;;;19.29;31.95;100131.02;2108800;83;20189;-82
2022/03/28 14:59:40;;;;;;;;;;;;;;;19.25;32.03;100134.65;2114359;83;20276;-82
2022/03/28 15:02:41;;;;;;;;;;;;;;;19.20;32.26;100123.77;2110692;83;20496;-82
2022/03/28 15:05:42;;;;;;;;;;;;;;;19.25;32.50;100130.61;2108483;83;20158;-82
2022/03/28 15:08:43;;;;;;;;;;;;;;;19.30;32.53;100114.34;2113887;83;20159;-82
2022/03/28 15:11:44;;;;;;;;;;;;;;;19.23;32.46;100111.21;2113699;83;20137;-82
2022/03/28 15:14:46;;;;;;;;;;;;;;;19.17;32.84;100122.84;2113427;83;20160;-82
2022/03/28 15:17:47;;;;;;;;;;;;;;;19.15;32.88;100118.75;2110683;83;20123;-83
2022/03/28 15:20:48;;;;;;;;;;;;;;;19.04;32.90;100116.27;2114059;83;20216;-82
2022/03/28 15:23:49;;;;;;;;;;;;;;;18.94;33.00;100103.32;2112381;83;20107;-82
2022/03/28 15:26:50;;;;;;;;;;;;;;;18.88;33.12;100110.12;2112270;83;20158;-82
2022/03/28 15:29:51;;;;;;;;;;;;;;;18.81;33.27;100108.84;2112839;83;20473;-82
2022/03/28 15:32:52;;;;;;;;;;;;;;;18.75;33.56;100104.33;2109664;83;20139;-81
2022/03/28 15:35:54;;;;;;;;;;;;;;;18.71;33.65;100101.23;2109233;83;20143;-82
2022/03/28 15:38:56;;;;;;;;;;;;;;;18.61;33.65;100098.21;2106444;83;20697;-82
2022/03/28 15:41:57;;;;;;;;;;;;;;;18.56;33.83;100095.39;2109072;83;20161;-82